createdAt,value
2023-01-11T00:02:12.358Z,338.70
2023-01-11T00:04:41.471Z,370.08
2023-01-11T00:07:10.851Z,337.75
2023-01-11T00:09:39.905Z,352.33
2023-01-11T00:12:09.254Z,350.85
2023-01-11T00:14:38.240Z,355.73
2023-01-11T00:17:07.419Z,354.13
2023-01-11T00:19:36.616Z,337.00
2023-01-11T00:22:05.892Z,334.77
2023-01-11T00:24:35.139Z,348.60
2023-01-11T00:27:04.449Z,336.65
2023-01-11T00:29:33.454Z,369.70
2023-01-11T00:32:02.804Z,348.45
2023-01-11T00:34:31.877Z,348.05
2023-01-11T00:37:01.060Z,346.88
2023-01-11T00:39:30.132Z,355.35
2023-01-11T00:42:17.819Z,367.83
2023-01-11T00:45:05.233Z,333.95
2023-01-11T00:47:52.611Z,344.02
2023-01-11T00:50:22.074Z,343.27
2023-01-11T00:52:51.052Z,332.77
2023-01-11T00:55:20.782Z,351.95
2023-01-11T00:57:50.122Z,344.50
2023-01-11T01:00:20.033Z,331.42
2023-01-11T01:02:52.849Z,346.08
2023-01-11T01:05:25.432Z,362.35
2023-01-11T01:07:58.378Z,332.92
2023-01-11T01:10:32.898Z,354.67
2023-01-11T01:13:21.015Z,350.00
2023-01-11T01:15:51.499Z,323.48
2023-01-11T01:18:22.448Z,343.45
2023-01-11T01:20:53.391Z,330.70
2023-01-11T01:23:24.121Z,305.35
2023-01-11T01:25:54.507Z,323.58
2023-01-11T01:28:24.880Z,313.98
2023-01-11T01:30:55.132Z,308.27
2023-01-11T01:33:26.120Z,318.27
2023-01-11T01:35:56.840Z,322.17
2023-01-11T01:38:27.354Z,304.95
2023-01-11T01:40:58.930Z,321.73
2023-01-11T01:43:48.720Z,298.30
2023-01-11T01:46:21.476Z,294.75
2023-01-11T01:49:02.146Z,332.88
2023-01-11T01:51:44.263Z,339.17
2023-01-11T01:54:20.813Z,310.13
2023-01-11T01:57:01.858Z,304.50
2023-01-11T01:59:33.672Z,301.60
2023-01-11T02:02:03.991Z,325.08
2023-01-11T02:04:36.359Z,321.35
2023-01-11T02:07:45.743Z,308.50
2023-01-11T02:10:24.172Z,330.27
2023-01-11T04:04:52.130Z,284.55
2023-01-11T04:07:21.453Z,289.25
2023-01-11T04:09:51.019Z,275.80
2023-01-11T04:12:19.941Z,254.63
2023-01-11T04:14:49.089Z,262.55
2023-01-11T04:17:18.230Z,275.70
2023-01-11T04:19:47.482Z,258.08
2023-01-11T04:22:16.720Z,281.80
2023-01-11T04:24:45.976Z,264.20
2023-01-11T04:27:14.964Z,266.55
2023-01-11T04:29:44.118Z,269.02
2023-01-11T04:32:13.324Z,290.17
2023-01-11T04:34:43.036Z,274.73
2023-01-11T04:37:13.157Z,280.42
2023-01-11T04:39:42.213Z,273.88
2023-01-11T04:42:19.639Z,300.75
2023-01-11T04:44:52.823Z,292.35
2023-01-11T04:47:26.811Z,281.85
2023-01-11T04:49:56.048Z,309.05
2023-01-11T04:52:25.306Z,263.42
2023-01-11T04:54:55.011Z,252.93
2023-01-11T04:57:25.441Z,250.73
2023-01-11T04:59:55.033Z,280.88
2023-01-11T05:02:23.988Z,306.75
2023-01-11T05:04:53.533Z,305.45
2023-01-11T05:07:23.018Z,281.98
2023-01-11T05:09:52.037Z,278.27
2023-01-11T05:12:21.146Z,249.75
2023-01-11T05:14:50.155Z,245.63
2023-01-11T05:17:19.551Z,239.98
2023-01-11T05:19:48.696Z,260.10
2023-01-11T05:22:17.889Z,262.35
2023-01-11T05:24:47.228Z,246.18
2023-01-11T05:27:16.439Z,260.27
2023-01-11T05:29:45.551Z,260.23
2023-01-11T05:32:15.009Z,294.38
2023-01-11T05:34:44.479Z,264.17
2023-01-11T05:37:13.646Z,286.10
2023-01-11T05:39:43.713Z,283.73
2023-01-11T05:42:12.781Z,282.73
2023-01-11T05:45:00.220Z,268.67
2023-01-11T05:47:29.544Z,271.60
2023-01-11T05:49:58.726Z,282.52
2023-01-11T05:52:27.703Z,292.70
2023-01-11T05:54:56.986Z,272.67
2023-01-11T05:57:26.507Z,278.48
2023-01-11T05:59:55.507Z,287.30
2023-01-11T06:02:24.809Z,278.23
2023-01-11T06:04:55.518Z,276.73
2023-01-11T06:07:26.651Z,267.85
2023-01-11T06:09:55.863Z,333.25
2023-01-11T06:12:25.142Z,324.58
2023-01-11T06:14:54.188Z,294.30
2023-01-11T06:17:23.504Z,295.27
2023-01-11T06:19:52.666Z,303.10
2023-01-11T06:22:21.865Z,301.15
2023-01-11T06:24:50.863Z,332.45
2023-01-11T06:27:20.945Z,365.42
2023-01-11T06:29:50.491Z,370.17
2023-01-11T06:32:19.518Z,345.48
2023-01-11T06:34:48.370Z,344.10
2023-01-11T06:37:17.574Z,383.88
2023-01-11T06:39:46.763Z,370.30
2023-01-11T06:42:15.391Z,366.10
2023-01-11T06:44:44.622Z,376.88
2023-01-11T06:47:13.917Z,388.52
2023-01-11T06:49:43.091Z,341.42
2023-01-11T06:55:04.192Z,361.55
2023-01-11T06:57:34.581Z,385.42
2023-01-11T07:00:04.705Z,382.02
2023-01-11T07:02:34.617Z,386.10
2023-01-11T07:05:03.785Z,401.98
2023-01-11T07:07:33.158Z,425.65
2023-01-11T07:10:02.273Z,409.80
2023-01-11T07:12:32.024Z,408.27
2023-01-11T07:15:01.670Z,414.50
2023-01-11T07:17:30.603Z,406.60
2023-01-11T07:19:59.813Z,396.80
2023-01-11T07:22:29.075Z,388.02
2023-01-11T07:24:58.312Z,405.05
2023-01-11T07:27:27.377Z,386.58
2023-01-11T07:29:56.240Z,401.95
2023-01-11T07:32:25.375Z,370.48
2023-01-11T07:34:55.170Z,358.23
2023-01-11T07:37:29.625Z,384.48
2023-01-11T07:39:59.799Z,382.98
2023-01-11T07:42:47.725Z,373.52
2023-01-11T09:10:46.239Z,234.20
2023-01-11T09:13:15.994Z,241.80
2023-01-11T09:15:47.923Z,237.52
2023-01-11T09:18:17.892Z,220.60
2023-01-11T09:20:46.986Z,238.30
2023-01-11T09:23:16.506Z,261.67
2023-01-11T09:25:46.113Z,252.85
2023-01-11T09:28:16.345Z,261.52
2023-01-11T09:30:45.842Z,237.07
2023-01-11T09:33:15.220Z,247.80
2023-01-11T09:35:47.431Z,234.57
2023-01-11T09:38:17.639Z,239.93
2023-01-11T09:40:58.250Z,234.25
2023-01-11T09:43:29.823Z,233.43
2023-01-11T09:46:08.265Z,243.27
2023-01-11T09:49:08.942Z,238.68
2023-01-11T09:51:40.734Z,259.17
2023-01-11T09:54:17.101Z,241.40
2023-01-11T09:56:58.943Z,236.70
2023-01-11T09:59:49.694Z,242.45
2023-01-11T10:02:39.825Z,236.38
2023-01-11T10:05:30.697Z,227.30
2023-01-11T10:18:28.852Z,242.40
2023-01-11T10:18:29.332Z,244.05
2023-01-11T10:21:16.074Z,222.80
2023-01-11T10:23:55.183Z,221.38
2023-01-11T10:26:30.391Z,236.20
2023-01-11T10:29:18.499Z,233.63
2023-01-11T10:32:16.358Z,236.95
2023-01-11T10:35:15.376Z,218.50
2023-01-11T10:37:49.573Z,221.23
2023-01-11T10:40:36.931Z,216.32
2023-01-11T10:43:14.826Z,216.75
2023-01-11T10:45:50.863Z,219.23
2023-01-11T10:48:29.052Z,224.43
2023-01-11T10:51:16.510Z,220.90
2023-01-11T10:54:17.712Z,224.38
2023-01-11T10:57:14.292Z,236.90
2023-01-11T11:00:21.058Z,238.05
2023-01-11T11:03:20.047Z,264.13
2023-01-11T11:06:19.879Z,255.90
2023-01-11T11:09:17.606Z,250.82
2023-01-11T11:11:59.630Z,249.60
2023-01-11T11:14:40.607Z,255.82
2023-01-11T11:17:27.268Z,274.38
2023-01-11T11:19:56.236Z,264.92
2023-01-11T11:22:25.528Z,277.35
2023-01-11T11:25:01.337Z,292.75
2023-01-11T11:27:44.198Z,298.77
2023-01-11T11:30:15.300Z,314.95
2023-01-11T11:32:55.871Z,328.80
2023-01-11T11:35:32.274Z,310.45
2023-01-11T11:38:01.824Z,304.15
2023-01-11T11:40:34.537Z,315.27
2023-01-11T11:43:19.752Z,301.67
2023-01-11T11:45:54.608Z,286.40
2023-01-11T11:48:25.243Z,281.17
2023-01-11T11:51:06.648Z,275.85
2023-01-11T11:53:57.131Z,263.67
2023-01-11T11:56:30.855Z,285.10
2023-01-11T11:59:00.982Z,292.95
2023-01-11T12:01:37.522Z,267.20
2023-01-11T12:04:17.034Z,297.42
2023-01-11T12:07:14.136Z,295.48
2023-01-11T12:10:32.710Z,287.42
2023-01-11T12:13:03.944Z,306.00
2023-01-11T12:15:34.972Z,294.52
2023-01-11T12:18:31.735Z,284.10
2023-01-11T12:21:21.213Z,280.45
2023-01-11T12:24:20.266Z,286.38
2023-01-11T12:27:29.765Z,279.52
2023-01-11T12:30:35.382Z,281.20
2023-01-11T12:33:52.306Z,301.00
2023-01-11T12:36:35.231Z,294.80
2023-01-11T12:39:22.593Z,297.08
2023-01-11T12:42:26.083Z,299.00
2023-01-11T12:45:26.768Z,321.20
2023-01-11T12:48:20.508Z,298.15
2023-01-11T12:51:06.014Z,276.88
2023-01-11T12:53:40.805Z,287.52
2023-01-11T12:56:32.743Z,312.42
2023-01-11T12:59:29.509Z,328.85
2023-01-11T13:05:30.534Z,340.50
2023-01-11T13:08:25.163Z,357.67
2023-01-11T13:11:09.530Z,342.73
2023-01-11T13:14:02.117Z,328.35
2023-01-11T13:16:39.532Z,333.98
2023-01-11T13:19:35.828Z,328.48
2023-01-11T13:22:13.032Z,353.55
2023-01-11T13:24:43.846Z,350.95
2023-01-11T13:27:23.498Z,359.95
2023-01-11T13:29:56.188Z,353.95
2023-01-11T13:34:58.643Z,375.73
2023-01-11T13:37:47.391Z,374.63
2023-01-11T13:40:35.190Z,395.73
2023-01-11T13:43:25.738Z,368.45
2023-01-11T13:46:04.643Z,373.75
2023-01-11T13:48:45.045Z,343.83
2023-01-11T13:51:24.351Z,359.30
2023-01-11T13:53:59.433Z,349.05
2023-01-11T13:56:42.652Z,329.75
2023-01-11T13:59:23.247Z,323.70
2023-01-11T14:02:04.597Z,307.13
2023-01-11T14:04:48.741Z,311.70
2023-01-11T14:07:51.565Z,299.38
2023-01-11T14:10:44.459Z,287.95
2023-01-11T14:13:46.711Z,323.02
2023-01-11T14:16:40.383Z,279.50
2023-01-11T14:19:38.150Z,314.75
2023-01-11T14:22:57.430Z,303.98
2023-01-11T14:25:31.952Z,300.02
2023-01-11T14:28:25.185Z,300.58
2023-01-11T14:31:03.370Z,317.77
2023-01-11T14:33:46.591Z,308.63
2023-01-11T14:36:44.019Z,304.38
2023-01-11T14:39:16.356Z,319.35
2023-01-11T14:42:03.458Z,337.67
2023-01-11T14:44:47.887Z,331.98
2023-01-11T14:47:44.196Z,338.50
2023-01-11T14:50:19.460Z,314.45
2023-01-11T14:52:50.710Z,319.90
2023-01-11T14:55:25.225Z,311.45
2023-01-11T14:57:57.009Z,293.60
2023-01-11T15:00:26.025Z,309.58
2023-01-11T15:03:18.955Z,336.58
2023-01-11T15:09:44.716Z,316.15
2023-01-11T15:12:22.413Z,310.13
2023-01-11T15:15:08.612Z,335.67
2023-01-11T15:17:56.125Z,313.63
2023-01-11T15:20:26.348Z,315.38
2023-01-11T15:23:07.098Z,343.05
2023-01-11T15:25:37.164Z,351.40
2023-01-11T15:28:35.104Z,346.40
2023-01-11T15:31:06.129Z,373.20
2023-01-11T15:33:55.345Z,351.00
2023-01-11T15:36:25.488Z,371.77
2023-01-11T15:39:07.194Z,373.30
2023-01-11T15:42:05.720Z,389.33
2023-01-11T15:45:02.073Z,373.95
2023-01-11T15:48:14.120Z,362.90
2023-01-11T15:51:19.481Z,361.30
2023-01-11T15:54:10.043Z,343.02
2023-01-11T15:57:04.233Z,348.48
2023-01-11T16:00:05.334Z,367.27
2023-01-11T16:03:10.869Z,345.75
2023-01-11T16:05:45.372Z,357.20
2023-01-11T16:08:33.866Z,334.95
2023-01-11T16:11:42.334Z,367.27
2023-01-11T16:14:48.312Z,361.95
2023-01-11T16:17:23.056Z,355.42
2023-01-11T16:19:57.777Z,362.10
2023-01-11T16:22:29.362Z,350.95
2023-01-11T16:25:06.526Z,385.63
2023-01-11T16:27:36.528Z,392.77
2023-01-11T16:30:06.587Z,372.20
2023-01-11T16:32:35.500Z,369.83
2023-01-11T16:35:17.404Z,402.10
2023-01-11T16:38:07.365Z,401.45
2023-01-11T16:40:43.339Z,378.13
2023-01-11T16:43:29.848Z,398.08
2023-01-11T16:45:59.541Z,371.58
2023-01-11T16:48:33.203Z,376.10
2023-01-11T16:51:03.783Z,391.10
2023-01-11T16:53:35.072Z,375.17
2023-01-11T16:56:14.908Z,372.33
2023-01-11T16:58:44.379Z,362.35
2023-01-11T17:01:16.230Z,338.48
2023-01-11T17:03:48.337Z,339.20
2023-01-11T17:06:20.752Z,363.93
2023-01-11T17:08:53.219Z,351.17
2023-01-11T17:11:48.221Z,366.02
2023-01-11T17:14:48.372Z,317.67
2023-01-11T17:17:18.654Z,320.52
2023-01-11T17:19:51.775Z,334.73
2023-01-11T17:22:23.818Z,347.98
2023-01-11T17:25:05.580Z,330.80
2023-01-11T17:27:43.084Z,314.05
2023-01-11T17:30:20.577Z,353.08
2023-01-11T17:32:55.735Z,364.13
2023-01-11T17:35:27.504Z,359.23
2023-01-11T17:38:02.936Z,317.63
2023-01-11T17:40:36.806Z,344.58
2023-01-11T17:43:42.398Z,329.95
2023-01-11T17:46:19.410Z,332.00
2023-01-11T17:49:00.841Z,347.52
2023-01-11T17:51:36.435Z,334.23
2023-01-11T17:54:05.591Z,356.23
2023-01-11T17:56:34.462Z,344.55
2023-01-11T17:59:24.420Z,361.85
2023-01-11T18:02:03.975Z,343.48
2023-01-11T18:04:33.576Z,328.88
2023-01-11T18:07:16.933Z,358.02
2023-01-11T18:09:49.141Z,342.50
2023-01-11T18:12:23.514Z,325.23
2023-01-11T18:14:55.866Z,327.25
2023-01-11T18:17:34.062Z,351.63
2023-01-11T18:20:23.982Z,367.23
2023-01-11T18:22:56.077Z,366.50
2023-01-11T18:25:27.332Z,371.02
2023-01-11T18:28:15.213Z,391.08
2023-01-11T18:30:47.403Z,356.63
2023-01-11T18:33:26.281Z,357.95
2023-01-11T18:36:04.159Z,374.50
2023-01-11T18:38:37.700Z,384.67
2023-01-11T18:41:29.278Z,348.50
2023-01-11T18:43:58.761Z,352.77
2023-01-11T18:46:28.001Z,360.23
2023-01-11T18:48:56.935Z,342.40
2023-01-11T18:51:26.446Z,335.25
2023-01-11T18:53:55.131Z,332.52
2023-01-11T18:56:24.012Z,339.70
2023-01-11T18:58:53.298Z,342.70
2023-01-11T19:01:22.235Z,341.70
2023-01-11T19:03:51.691Z,369.52
2023-01-11T19:06:22.684Z,341.17
2023-01-11T19:08:51.523Z,334.10
2023-01-11T19:11:20.289Z,327.42
2023-01-11T19:13:49.413Z,356.80
2023-01-11T19:16:18.514Z,330.23
2023-01-11T19:18:48.532Z,321.30
2023-01-11T19:21:17.424Z,353.80
2023-01-11T19:23:46.136Z,324.58
2023-01-11T19:26:15.088Z,344.90
2023-01-11T19:28:44.099Z,300.10
2023-01-11T19:31:13.494Z,306.05
2023-01-11T19:33:42.514Z,323.58
2023-01-11T19:36:12.105Z,329.35
2023-01-11T19:38:41.403Z,320.70
2023-01-11T19:41:11.679Z,352.42
2023-01-11T19:43:46.151Z,312.05
2023-01-11T19:46:30.131Z,312.17
2023-01-11T19:49:00.432Z,306.75
2023-01-11T19:51:29.179Z,330.17
2023-01-11T19:53:58.790Z,326.90
2023-01-11T19:56:27.658Z,289.45
2023-01-11T19:58:56.421Z,350.00
2023-01-11T20:01:25.400Z,314.67
2023-01-11T20:03:54.267Z,321.48
2023-01-11T20:06:23.155Z,359.25
2023-01-11T20:08:52.181Z,359.50
2023-01-11T20:11:21.126Z,344.00
2023-01-11T20:13:53.541Z,342.65
2023-01-11T20:16:24.916Z,357.40
2023-01-11T20:18:56.164Z,349.35
2023-01-11T20:21:28.697Z,321.48
2023-01-11T20:23:58.633Z,343.58
2023-01-11T20:26:29.228Z,334.70
2023-01-11T20:28:59.382Z,328.15
2023-01-11T20:31:33.080Z,307.42
2023-01-11T20:34:11.039Z,324.15
2023-01-11T20:36:41.343Z,324.48
2023-01-11T20:39:11.738Z,296.27
2023-01-11T20:41:53.746Z,287.13
2023-01-11T20:44:25.378Z,293.20
2023-01-11T20:46:57.157Z,306.70
2023-01-11T20:49:29.852Z,322.02
2023-01-11T20:51:59.727Z,287.40
2023-01-11T20:54:28.845Z,291.60
2023-01-11T20:57:03.204Z,277.15
2023-01-11T20:59:33.228Z,272.27
2023-01-11T21:02:02.241Z,260.27
2023-01-11T21:04:34.207Z,254.75
2023-01-11T21:07:03.651Z,263.65
2023-01-11T21:09:32.435Z,251.82
2023-01-11T21:12:01.606Z,241.55
2023-01-11T21:14:31.401Z,222.75
2023-01-11T21:17:00.743Z,217.85
2023-01-11T21:19:29.637Z,226.13
2023-01-11T21:21:58.428Z,201.15
2023-01-11T21:24:27.429Z,230.40
2023-01-11T21:26:56.210Z,253.48
2023-01-11T21:29:25.337Z,212.85
2023-01-11T21:31:54.322Z,227.63
2023-01-11T21:34:23.200Z,217.68
2023-01-11T21:36:52.209Z,214.07
2023-01-11T21:39:20.983Z,210.65
2023-01-11T21:41:56.283Z,237.65
2023-01-11T21:44:32.793Z,217.73
2023-01-11T21:47:04.214Z,219.55
2023-01-11T21:49:34.023Z,232.18
2023-01-11T21:52:02.698Z,226.07
2023-01-11T21:54:31.913Z,230.50
2023-01-11T21:57:00.728Z,239.27
2023-01-11T21:59:30.883Z,241.77
2023-01-11T22:02:00.617Z,220.32
2023-01-11T22:04:29.663Z,250.98
2023-01-11T22:07:00.993Z,215.90
2023-01-11T22:09:29.964Z,229.80
2023-01-11T22:11:58.883Z,231.05
2023-01-11T22:14:27.921Z,213.50
2023-01-11T22:16:57.067Z,229.48
2023-01-11T22:19:25.843Z,208.30
2023-01-11T22:21:54.988Z,239.68
2023-01-11T22:24:23.886Z,228.20
2023-01-11T22:26:53.010Z,243.85
2023-01-11T22:29:22.036Z,224.52
2023-01-11T22:31:55.555Z,243.07
2023-01-11T22:34:25.775Z,231.68
2023-01-11T22:36:57.879Z,238.90
2023-01-11T22:39:27.497Z,219.02
2023-01-11T22:41:56.463Z,235.13
2023-01-11T22:44:25.272Z,226.55
2023-01-11T22:46:54.817Z,214.82
2023-01-11T22:49:23.509Z,215.90
2023-01-11T22:51:52.445Z,218.45
2023-01-11T22:54:21.383Z,222.80
2023-01-11T22:56:50.308Z,209.35
2023-01-11T22:59:19.136Z,218.95
2023-01-11T23:01:48.118Z,206.27
2023-01-11T23:04:17.028Z,226.90
2023-01-11T23:06:45.753Z,232.75
2023-01-11T23:09:17.204Z,215.18
2023-01-11T23:12:05.247Z,238.10
2023-01-11T23:14:34.707Z,232.43
2023-01-11T23:17:08.987Z,263.77
2023-01-11T23:19:40.743Z,241.45
2023-01-11T23:22:11.279Z,231.83
2023-01-11T23:24:41.078Z,254.20
2023-01-11T23:27:10.180Z,235.80
2023-01-11T23:29:38.896Z,251.40
2023-01-11T23:32:08.007Z,246.90
2023-01-11T23:34:36.789Z,228.68
2023-01-11T23:37:06.040Z,231.55
2023-01-11T23:39:34.917Z,223.38
2023-01-11T23:42:22.142Z,232.70
2023-01-11T23:44:51.191Z,238.00
2023-01-11T23:47:23.042Z,251.25
2023-01-11T23:50:01.415Z,267.67
2023-01-11T23:52:32.788Z,312.50
2023-01-11T23:55:01.942Z,296.48
2023-01-11T23:57:30.596Z,286.75
2023-01-11T23:59:59.673Z,295.35
